• Join FlightAware (Why Join?)
  • Login
  • US Flag 
05:27AM EDT


 

Airport Tracker/Info


-or-


 

Live Flight TrackerFlight Track Log ✈ GUJ334 ✈ 23-Apr-2013 ✈ VIDP / DEL - VABB / BOM

Flight Track Log - Related Links

Times and Time Zones

All times are in EDT time to prevent confusion due to time zone crossing. See the GUJ334 flight status page for this flight to view local times or setup timezone preferences in your user account.

Time Position Orientation Groundspeed Altitude Reporting Facility
EDT Latitude Longitude Course Direction KTS MPH feet Rate Location/Type
11:00PM 27.3562 76.5218 203° Southwest  Level Estimated
11:01PM 27.2696 76.4808 203° Southwest  Level Estimated
11:02PM 27.1831 76.4398 203° Southwest  Level Estimated
11:03PM 27.0965 76.3989 203° Southwest  Level Estimated
11:04PM 27.0099 76.3581 203° Southwest  Level Estimated
11:05PM 26.9233 76.3173 203° Southwest  Level Estimated
11:06PM 26.8367 76.2766 203° Southwest  Level Estimated
11:07PM 26.7501 76.2359 203° Southwest  Level Estimated
11:08PM 26.6635 76.1954 203° Southwest  Level Estimated
11:09PM 26.5768 76.1548 203° Southwest  Level Estimated
11:10PM 26.4902 76.1143 203° Southwest  Level Estimated
11:11PM 26.4035 76.0740 203° Southwest  Level Estimated
11:12PM 26.3169 76.0336 203° Southwest  Level Estimated
11:13PM 26.2302 75.9933 203° Southwest  Level Estimated
11:14PM 26.1435 75.9531 203° Southwest  Level Estimated
11:15PM 26.0568 75.9129 203° Southwest  Level Estimated
11:16PM 25.9701 75.8728 203° Southwest  Level Estimated
11:17PM 25.8833 75.8328 203° Southwest  Level Estimated
11:18PM 25.7966 75.7928 203° Southwest  Level Estimated
11:19PM 25.7098 75.7529 203° Southwest  Level Estimated
11:20PM 25.6231 75.7130 203° Southwest  Level Estimated
11:21PM 25.5363 75.6732 202° Southwest  Level Estimated
11:22PM 25.4495 75.6335 202° Southwest  Level Estimated
11:23PM 25.3627 75.5938 202° Southwest  Level Estimated
11:24PM 25.2759 75.5541 202° Southwest  Level Estimated
11:25PM 25.1891 75.5145 202° Southwest  Level Estimated
11:26PM 25.1023 75.4750 202° Southwest  Level Estimated
11:27PM 25.0155 75.4355 202° Southwest  Level Estimated
11:28PM 24.9286 75.3961 202° Southwest  Level Estimated
11:29PM 24.8418 75.3568 202° Southwest  Level Estimated
11:30PM 24.7549 75.3175 202° Southwest  Level Estimated
11:31PM 24.6680 75.2782 202° Southwest  Level Estimated
11:32PM 24.5811 75.2390 202° Southwest  Level Estimated
11:33PM 24.4942 75.1999 202° Southwest  Level Estimated
11:34PM 24.4073 75.1608 202° Southwest  Level Estimated
11:35PM 24.3204 75.1217 202° Southwest  Level Estimated
11:36PM 24.2335 75.0828 202° Southwest  Level Estimated
11:37PM 24.1465 75.0438 202° Southwest  Level Estimated
11:38PM 24.0596 75.0050 202° Southwest  Level Estimated
11:39PM 23.9726 74.9661 202° Southwest  Level Estimated
11:40PM 23.8856 74.9274 202° Southwest  Level Estimated
11:41PM 23.7987 74.8887 202° Southwest  Level Estimated
11:42PM 23.7117 74.8500 202° Southwest  Level Estimated
11:43PM 23.6247 74.8114 202° Southwest  Level Estimated
11:44PM 23.5377 74.7728 202° Southwest  Level Estimated
11:45PM 23.4507 74.7343 202° Southwest  Level Estimated
11:46PM 23.3636 74.6959 202° Southwest  Level Estimated
11:47PM 23.2766 74.6574 202° Southwest  Level Estimated
11:48PM 23.1896 74.6191 202° Southwest  Level Estimated
11:49PM 23.1025 74.5808 202° Southwest  Level Estimated
11:50PM 23.0155 74.5425 202° Southwest  Level Estimated
11:51PM 22.9284 74.5043 202° Southwest  Level Estimated
11:52PM 22.8413 74.4661 202° Southwest  Level Estimated
11:53PM 22.7542 74.4280 202° Southwest  Level Estimated
11:54PM 22.6671 74.3900 202° Southwest  Level Estimated
11:55PM 22.5800 74.3520 202° Southwest  Level Estimated
11:56PM 22.4929 74.3140 202° Southwest  Level Estimated
11:57PM 22.4058 74.2761 202° Southwest  Level Estimated
11:58PM 22.3186 74.2382 202° Southwest  Level Estimated
11:59PM 22.2315 74.2004 202° Southwest  Level Estimated
12:00AM 22.1444 74.1626 202° Southwest  Level Estimated
12:01AM 22.0572 74.1249 202° Southwest  Level Estimated
12:02AM 21.9700 74.0872 202° Southwest  Level Estimated
12:03AM 21.8828 74.0495 202° Southwest  Level Estimated
12:04AM 21.7957 74.0119 202° Southwest  Level Estimated
12:05AM 21.7085 73.9744 202° Southwest  Level Estimated
12:06AM 21.6213 73.9369 202° Southwest  Level Estimated
12:07AM 21.5341 73.8994 202° Southwest  Level Estimated
12:08AM 21.4468 73.8620 202° Southwest  Level Estimated
12:09AM 21.3596 73.8247 202° Southwest  Level Estimated
12:10AM 21.2724 73.7873 202° Southwest  Level Estimated
12:11AM 21.1851 73.7501 202° Southwest  Level Estimated
12:12AM 21.0979 73.7128 202° Southwest  Level Estimated
12:13AM 21.0106 73.6756 202° Southwest  Level Estimated
12:14AM 20.9233 73.6385 202° Southwest  Level Estimated
12:15AM 20.8361 73.6014 202° Southwest  Level Estimated
12:16AM 20.7488 73.5643 202° Southwest  Level Estimated
12:17AM 20.6615 73.5273 202° Southwest  Level Estimated
12:18AM 20.5742 73.4903 202° Southwest  Level Estimated
12:19AM 20.4869 73.4534 202° Southwest  Level Estimated
12:20AM 20.3996 73.4165 202° Southwest  Level Estimated
12:21AM 20.3123 73.3797 202° Southwest  Level Estimated
12:22AM 20.2249 73.3428 202° Southwest  Level Estimated
12:23AM 20.1376 73.3061 202° Southwest  Level Estimated
12:24AM 20.0502 73.2694 202° Southwest  Level Estimated
12:25AM 19.9629 73.2327 202° Southwest  Level Estimated
12:26AM 19.8755 73.1960 202° Southwest  Level Estimated
12:27AM 19.7882 73.1594 202° Southwest  Level Estimated
12:28AM 19.7008 73.1229 202° Southwest  Level Estimated
12:29AM 19.6134 73.0863 201° Southwest  Level Estimated
12:30AM 19.5260 73.0499 201° Southwest  Level Estimated
12:31AM 19.4386 73.0134 201° Southwest  Level Estimated
12:32AM 19.3512 72.9770 201° Southwest  Level Estimated
12:33AM 19.2638 72.9406 201° Southwest  Level Estimated
12:34AM 19.1764 72.9043 201° Southwest  Level Estimated
12:35AM 19.0889 72.8680 201° Southwest  Level Estimated
12:36AM 19.0887 72.8679 202° Southwest  Level Estimated
12:37AM 19.0887 72.8679 193° South  Level Estimated
12:38AM 19.0887 72.8679 193° South  Level Estimated
12:39AM 19.0887 72.8679 193° South  Level Estimated
12:40AM 19.0887 72.8679 193° South  Level Estimated
12:41AM 19.0887 72.8679 193° South  Level Estimated
12:42AM 19.0887 72.8679 193° South  Level Estimated
12:43AM 19.0887 72.8679 193° South  Level Estimated